MA25 weather

Long Pond Seaplane Base
Brewster, Massachusetts, United States

Public forecast

Using degrees Fahrenheit for public forecast. Weather courtesy of forecast.io.

METAR (pilot weather report)

Closest report is Chatham Municipal Airport, 4.1 nm (7.7 km) SE. Retrieved 2019/07/21 02:52 UTC (43 minutes ago):

KCQX 210252Z AUTO 24006KT 9SM CLR 26/23 A2977 RMK AO2 SLP082 T02560233 58002 $

TAF (pilot weather forecast)

Forecast is more than 12 hours old.

Closest forecast is Barnstable Municipal Boardman Polando Field, 10.5 nm (19.5 km) WSW. Retrieved 2019/07/20 00:24 UTC (1 day ago):

TAF KHYA 202322Z 2100/2124 22009KT P6SM FEW200 FM211100 25008KT P6SM FEW150 FM211700 24012KT P6SM FEW120